createdAt,value
2022-10-04T00:00:27.883Z,11.10
2022-10-04T00:03:24.722Z,11.21
2022-10-04T00:05:58.281Z,11.08
2022-10-04T00:08:33.793Z,11.14
2022-10-04T00:11:06.056Z,11.25
2022-10-04T00:13:35.539Z,11.17
2022-10-04T00:16:02.505Z,11.21
2022-10-04T00:18:40.511Z,11.19
2022-10-04T00:21:09.002Z,11.18
2022-10-04T00:23:38.490Z,11.14
2022-10-04T00:26:12.968Z,11.17
2022-10-04T00:28:40.145Z,11.32
2022-10-04T00:31:09.808Z,11.36
2022-10-04T00:33:37.517Z,11.19
2022-10-04T00:36:25.832Z,11.16
2022-10-04T00:39:25.604Z,11.19
2022-10-04T00:42:14.114Z,11.12
2022-10-04T00:45:02.304Z,11.01
2022-10-04T00:47:46.970Z,11.07
2022-10-04T00:50:28.747Z,11.13
2022-10-04T00:52:59.216Z,11.11
2022-10-04T00:55:35.834Z,11.11
2022-10-04T00:58:08.722Z,11.02
2022-10-04T01:00:37.096Z,11.12
2022-10-04T01:03:13.838Z,11.18
2022-10-04T01:05:45.479Z,11.17
2022-10-04T01:08:22.848Z,11.25
2022-10-04T01:11:18.029Z,11.20
2022-10-04T01:13:56.603Z,11.16
2022-10-04T01:16:27.600Z,11.11
2022-10-04T01:18:54.323Z,11.22
2022-10-04T01:21:24.218Z,11.20
2022-10-04T01:23:52.125Z,10.99
2022-10-04T01:26:32.134Z,11.11
2022-10-04T01:29:01.825Z,11.08
2022-10-04T01:31:29.428Z,11.03
2022-10-04T01:33:56.564Z,11.10
2022-10-04T01:36:23.805Z,11.14
2022-10-04T01:38:50.868Z,11.16
2022-10-04T01:41:21.726Z,11.24
2022-10-04T01:43:53.068Z,11.20
2022-10-04T01:46:25.628Z,11.03
2022-10-04T01:48:57.055Z,11.07
2022-10-04T01:51:31.777Z,10.88
2022-10-04T01:54:10.181Z,10.94
2022-10-04T01:56:46.836Z,10.84
2022-10-04T01:59:29.217Z,10.75
2022-10-04T02:02:05.812Z,10.89
2022-10-04T02:04:35.755Z,10.93
2022-10-04T02:07:04.609Z,11.02
2022-10-04T02:09:39.166Z,11.12
2022-10-04T02:12:06.832Z,11.07
2022-10-04T02:14:36.966Z,11.03
2022-10-04T02:17:10.498Z,11.12
2022-10-04T02:19:42.859Z,10.99
2022-10-04T02:22:11.108Z,11.11
2022-10-04T02:24:42.624Z,11.13
2022-10-04T02:27:09.326Z,10.95
2022-10-04T02:29:36.133Z,10.87
2022-10-04T02:32:23.965Z,10.72
2022-10-04T02:34:51.551Z,10.89
2022-10-04T02:37:18.629Z,10.91
2022-10-04T02:39:54.154Z,10.88
2022-10-04T02:42:35.392Z,10.64
2022-10-04T02:45:13.795Z,10.70
2022-10-04T02:47:49.989Z,10.80
2022-10-04T02:50:23.850Z,10.86
2022-10-04T02:52:58.431Z,10.94
2022-10-04T02:55:31.041Z,10.89
2022-10-04T02:57:59.737Z,10.86
2022-10-04T03:00:29.801Z,10.94
2022-10-04T03:03:23.552Z,11.03
2022-10-04T03:05:58.164Z,10.98
2022-10-04T03:08:26.893Z,10.87
2022-10-04T03:10:53.820Z,10.87
2022-10-04T03:13:21.375Z,10.92
2022-10-04T03:15:50.158Z,10.85
2022-10-04T03:18:18.284Z,10.83
2022-10-04T03:20:47.251Z,10.86
2022-10-04T03:23:17.351Z,10.76
2022-10-04T03:26:05.846Z,10.83
2022-10-04T03:28:32.532Z,10.72
2022-10-04T03:31:00.474Z,10.80
2022-10-04T03:33:28.749Z,10.74
2022-10-04T03:35:58.460Z,10.71
2022-10-04T03:38:28.329Z,10.67
2022-10-04T03:41:01.708Z,10.66
2022-10-04T03:43:31.762Z,10.71
2022-10-04T03:46:00.659Z,10.72
2022-10-04T03:48:42.758Z,10.54
2022-10-04T03:51:16.045Z,10.72
2022-10-04T03:53:45.732Z,10.65
2022-10-04T03:56:15.891Z,10.62
2022-10-04T03:58:42.916Z,10.63
2022-10-04T04:01:24.808Z,10.72
2022-10-04T04:04:18.964Z,10.59
2022-10-04T04:06:57.594Z,10.68
2022-10-04T04:09:43.634Z,10.71
2022-10-04T04:12:17.397Z,10.56
2022-10-04T04:14:46.869Z,10.33
2022-10-04T04:17:27.590Z,10.54
2022-10-04T04:20:00.457Z,10.62
2022-10-04T04:22:31.380Z,10.66
2022-10-04T04:25:05.531Z,10.66
2022-10-04T04:27:36.316Z,10.62
2022-10-04T04:30:06.356Z,10.73
2022-10-04T04:32:52.568Z,10.74
2022-10-04T04:35:25.504Z,10.89
2022-10-04T04:38:23.733Z,10.84
2022-10-04T04:40:55.589Z,10.73
2022-10-04T04:43:25.821Z,10.78
2022-10-04T04:46:14.918Z,10.71
2022-10-04T04:48:45.088Z,10.62
2022-10-04T04:51:20.866Z,10.51
2022-10-04T04:53:49.001Z,10.45
2022-10-04T04:56:23.306Z,10.57
2022-10-04T04:58:52.630Z,10.54
2022-10-04T05:01:33.902Z,10.60
2022-10-04T05:04:24.186Z,10.71
2022-10-04T05:07:06.216Z,10.49
2022-10-04T05:09:36.135Z,10.44
2022-10-04T05:12:12.795Z,10.58
2022-10-04T05:14:45.624Z,10.66
2022-10-04T05:17:22.946Z,10.62
2022-10-04T05:19:51.958Z,10.66
2022-10-04T05:22:23.072Z,10.61
2022-10-04T05:24:54.714Z,10.71
2022-10-04T05:27:29.938Z,10.58
2022-10-04T05:30:14.593Z,10.55
2022-10-04T05:32:54.897Z,10.62
2022-10-04T05:35:23.425Z,10.70
2022-10-04T05:38:07.822Z,10.69
2022-10-04T05:40:52.507Z,10.73
2022-10-04T05:43:34.952Z,10.69
2022-10-04T05:46:25.515Z,10.60
2022-10-04T05:49:08.339Z,10.55
2022-10-04T05:51:49.099Z,10.67
2022-10-04T05:54:23.734Z,10.70
2022-10-04T05:57:20.655Z,10.63
2022-10-04T06:00:04.122Z,10.63
2022-10-04T06:02:52.010Z,10.69
2022-10-04T06:05:29.346Z,10.72
2022-10-04T06:08:21.184Z,10.56
2022-10-04T06:11:05.327Z,10.66
2022-10-04T06:13:53.636Z,10.65
2022-10-04T06:16:32.351Z,10.53
2022-10-04T06:19:24.005Z,10.61
2022-10-04T06:21:51.794Z,10.71
2022-10-04T06:24:27.127Z,10.70
2022-10-04T06:27:04.597Z,10.80
2022-10-04T06:29:38.724Z,10.76
2022-10-04T06:32:20.512Z,10.74
2022-10-04T06:35:16.433Z,10.78
2022-10-04T06:38:07.128Z,10.75
2022-10-04T06:41:15.417Z,10.91
2022-10-04T06:43:47.688Z,10.63
2022-10-04T06:46:23.443Z,10.62
2022-10-04T06:49:09.833Z,10.55
2022-10-04T06:51:52.693Z,10.75
2022-10-04T06:54:31.972Z,10.86
2022-10-04T06:56:58.493Z,10.87
2022-10-04T06:59:54.493Z,10.93
2022-10-04T07:02:48.609Z,11.13
2022-10-04T07:05:34.089Z,10.97
2022-10-04T07:08:12.262Z,10.87
2022-10-04T07:10:56.793Z,10.87
2022-10-04T07:13:34.409Z,11.12
2022-10-04T07:16:17.291Z,10.90
2022-10-04T07:19:24.750Z,11.37
2022-10-04T07:22:06.852Z,11.44
2022-10-04T07:25:27.937Z,11.60
2022-10-04T07:28:29.435Z,11.54
2022-10-04T07:31:03.665Z,11.61
2022-10-04T07:33:35.609Z,11.69
2022-10-04T07:36:10.729Z,11.69
2022-10-04T07:39:01.915Z,11.75
2022-10-04T07:41:44.259Z,11.79
2022-10-04T07:44:46.649Z,11.90
2022-10-04T07:47:20.337Z,12.00
2022-10-04T07:49:50.592Z,12.08
2022-10-04T07:52:29.696Z,12.13
2022-10-04T07:55:17.532Z,12.10
2022-10-04T07:58:09.502Z,12.25
2022-10-04T08:00:47.453Z,12.34
2022-10-04T08:03:56.519Z,12.50
2022-10-04T08:06:27.610Z,12.61
2022-10-04T08:09:17.181Z,12.65
2022-10-04T08:11:45.407Z,12.72
2022-10-04T08:14:29.795Z,12.73
2022-10-04T08:17:15.635Z,12.91
2022-10-04T08:20:12.327Z,12.90
2022-10-04T08:23:16.476Z,12.97
2022-10-04T08:25:59.539Z,13.02
2022-10-04T08:29:35.772Z,13.23
2022-10-04T08:32:31.713Z,13.33
2022-10-04T08:35:20.073Z,13.36
2022-10-04T08:37:49.594Z,13.55
2022-10-04T08:40:33.251Z,13.70
2022-10-04T08:43:30.858Z,13.57
2022-10-04T08:46:09.958Z,13.67
2022-10-04T08:48:53.734Z,13.80
2022-10-04T08:51:20.272Z,14.08
2022-10-04T08:54:19.125Z,13.98
2022-10-04T08:56:57.920Z,13.94
2022-10-04T09:00:02.078Z,14.05
2022-10-04T09:02:55.484Z,14.27
2022-10-04T09:05:37.946Z,14.36
2022-10-04T09:08:42.435Z,14.43
2022-10-04T09:11:28.285Z,14.37
2022-10-04T09:14:07.008Z,14.42
2022-10-04T09:17:19.768Z,14.61
2022-10-04T09:20:39.087Z,14.88
2022-10-04T09:23:34.059Z,14.81
2022-10-04T09:26:19.437Z,14.92
2022-10-04T09:28:52.232Z,15.11
2022-10-04T09:32:04.332Z,15.25
2022-10-04T09:34:53.188Z,15.53
2022-10-04T09:37:41.525Z,15.65
2022-10-04T09:41:05.958Z,15.68
2022-10-04T09:43:57.298Z,15.76
2022-10-04T09:46:56.778Z,15.86
2022-10-04T09:49:37.748Z,15.79
2022-10-04T09:52:21.042Z,15.81
2022-10-04T09:55:04.961Z,16.17
2022-10-04T09:58:01.955Z,16.26
2022-10-04T10:00:40.953Z,16.16
2022-10-04T10:03:26.444Z,16.34
2022-10-04T10:06:05.201Z,16.44
2022-10-04T10:08:45.054Z,16.30
2022-10-04T10:11:42.753Z,16.70
2022-10-04T10:14:21.631Z,16.38
2022-10-04T10:17:25.943Z,16.60
2022-10-04T10:20:16.657Z,16.74
2022-10-04T10:22:55.385Z,16.82
2022-10-04T10:25:47.819Z,16.71
2022-10-04T10:28:15.088Z,16.93
2022-10-04T10:31:06.183Z,17.03
2022-10-04T10:34:11.015Z,17.27
2022-10-04T10:36:59.961Z,17.21
2022-10-04T10:39:43.958Z,17.06
2022-10-04T10:42:49.006Z,17.14
2022-10-04T10:45:38.821Z,17.54
2022-10-04T10:48:35.567Z,17.50
2022-10-04T10:51:29.591Z,17.72
2022-10-04T10:54:34.967Z,17.85
2022-10-04T10:57:10.716Z,17.99
2022-10-04T10:59:56.546Z,17.98
2022-10-04T11:02:47.586Z,18.10
2022-10-04T11:05:29.046Z,18.04
2022-10-04T11:08:02.393Z,18.07
2022-10-04T11:11:06.384Z,18.18
2022-10-04T11:14:12.328Z,18.22
2022-10-04T11:17:30.981Z,18.41
2022-10-04T11:20:24.849Z,18.55
2022-10-04T11:23:11.041Z,18.83
2022-10-04T11:25:43.783Z,18.74
2022-10-04T11:28:31.910Z,19.03
2022-10-04T11:30:58.531Z,19.02
2022-10-04T11:33:46.609Z,19.06
2022-10-04T11:36:16.044Z,19.15
2022-10-04T11:39:14.997Z,19.41
2022-10-04T11:41:52.906Z,19.70
2022-10-04T11:44:48.521Z,19.65
2022-10-04T11:47:39.589Z,19.64
2022-10-04T11:50:29.166Z,19.57
2022-10-04T11:53:22.010Z,19.67
2022-10-04T11:56:04.059Z,19.88
2022-10-04T11:58:49.843Z,20.00
2022-10-04T12:01:30.332Z,20.11
2022-10-04T12:04:18.502Z,19.89
2022-10-04T12:07:22.649Z,20.00
2022-10-04T12:10:00.803Z,20.03
2022-10-04T12:12:36.870Z,20.15
2022-10-04T12:15:41.937Z,19.78
2022-10-04T12:18:14.940Z,20.03
2022-10-04T12:21:21.984Z,20.26
2022-10-04T12:24:07.294Z,20.19
2022-10-04T12:26:49.194Z,20.51
2022-10-04T12:29:30.975Z,20.79
2022-10-04T12:32:04.366Z,20.59
2022-10-04T12:34:55.389Z,20.41
2022-10-04T12:37:34.612Z,20.61
2022-10-04T12:40:14.779Z,20.80
2022-10-04T12:42:53.078Z,20.88
2022-10-04T12:45:27.351Z,20.95
2022-10-04T12:48:05.724Z,21.14
2022-10-04T12:51:04.010Z,21.48
2022-10-04T12:53:55.479Z,21.09
2022-10-04T12:56:46.293Z,21.14
2022-10-04T12:59:19.320Z,21.10
2022-10-04T13:02:21.823Z,21.23
2022-10-04T13:04:55.239Z,21.51
2022-10-04T13:07:51.263Z,21.33
2022-10-04T13:10:24.670Z,21.44
2022-10-04T13:12:55.222Z,21.51
2022-10-04T13:18:46.455Z,21.42
2022-10-04T13:21:35.453Z,21.48
2022-10-04T13:24:56.580Z,21.36
2022-10-04T13:27:28.665Z,21.57
2022-10-04T13:30:16.797Z,21.61
2022-10-04T13:32:54.841Z,21.78
2022-10-04T13:35:31.928Z,21.63
2022-10-04T13:38:31.687Z,21.73
2022-10-04T13:41:30.996Z,21.61
2022-10-04T13:44:07.983Z,21.59
2022-10-04T13:46:58.927Z,21.71
2022-10-04T13:50:06.818Z,21.87
2022-10-04T13:53:14.012Z,21.70
2022-10-04T13:56:30.037Z,21.49
2022-10-04T13:59:35.207Z,21.20
2022-10-04T14:02:21.423Z,20.97
2022-10-04T14:05:25.753Z,21.07
2022-10-04T14:08:17.455Z,21.18
2022-10-04T14:11:34.581Z,21.18
2022-10-04T14:15:01.457Z,20.95
2022-10-04T14:17:46.290Z,21.13
2022-10-04T14:20:39.070Z,21.21
2022-10-04T14:23:08.577Z,21.27
2022-10-04T14:25:53.421Z,21.11
2022-10-04T14:28:51.523Z,21.04
2022-10-04T14:31:42.309Z,21.06
2022-10-04T14:34:47.612Z,21.05
2022-10-04T14:37:42.883Z,21.21
2022-10-04T14:40:27.796Z,21.21
2022-10-04T14:43:30.643Z,21.03
2022-10-04T14:46:34.273Z,20.87
2022-10-04T14:49:13.346Z,20.95
2022-10-04T14:51:54.680Z,21.28
2022-10-04T14:54:28.964Z,21.39
2022-10-04T14:57:12.192Z,21.66
2022-10-04T15:00:11.425Z,21.74
2022-10-04T15:02:38.124Z,21.34
2022-10-04T15:05:08.390Z,21.20
2022-10-04T15:07:39.182Z,21.07
2022-10-04T15:10:22.480Z,20.88
2022-10-04T15:13:11.525Z,20.74
2022-10-04T15:15:45.107Z,20.75
2022-10-04T15:18:38.057Z,20.84
2022-10-04T15:21:32.478Z,21.03
2022-10-04T15:24:18.091Z,21.24
2022-10-04T15:27:22.099Z,21.22
2022-10-04T15:30:19.646Z,21.08
2022-10-04T15:33:13.647Z,20.87
2022-10-04T15:36:11.529Z,20.60
2022-10-04T15:39:06.247Z,20.57
2022-10-04T15:42:11.995Z,20.53
2022-10-04T15:44:59.469Z,20.44
2022-10-04T15:47:35.045Z,20.49
2022-10-04T15:50:26.102Z,20.51
2022-10-04T15:53:20.100Z,20.55
2022-10-04T15:56:09.962Z,20.43
2022-10-04T15:59:09.053Z,20.48
2022-10-04T16:01:51.958Z,20.48
2022-10-04T16:04:43.327Z,20.55
2022-10-04T16:07:47.781Z,20.48
2022-10-04T16:10:52.201Z,20.41
2022-10-04T16:13:28.388Z,20.29
2022-10-04T16:16:17.550Z,20.24
2022-10-04T16:18:58.747Z,20.15
2022-10-04T16:21:49.963Z,20.06
2022-10-04T16:24:19.488Z,19.97
2022-10-04T16:26:47.579Z,19.82
2022-10-04T16:30:14.438Z,19.78
2022-10-04T16:32:44.759Z,19.71
2022-10-04T16:35:25.309Z,19.64
2022-10-04T16:38:04.140Z,19.57
2022-10-04T16:40:30.683Z,19.48
2022-10-04T16:43:03.829Z,19.38
2022-10-04T16:45:49.475Z,19.33
2022-10-04T16:48:34.633Z,19.22
2022-10-04T16:51:22.319Z,19.07
2022-10-04T16:54:01.229Z,19.03
2022-10-04T16:56:31.709Z,18.90
2022-10-04T16:59:13.633Z,18.77
2022-10-04T17:01:55.507Z,18.63
2022-10-04T17:04:36.110Z,18.51
2022-10-04T17:07:13.144Z,18.42
2022-10-04T17:09:48.859Z,18.25
2022-10-04T17:12:27.775Z,18.20
2022-10-04T17:15:20.902Z,18.07
2022-10-04T17:18:01.177Z,17.96
2022-10-04T17:20:31.039Z,17.90
2022-10-04T17:23:19.396Z,17.88
2022-10-04T17:26:13.551Z,17.84
2022-10-04T17:28:56.670Z,17.76
2022-10-04T17:31:35.618Z,17.62
2022-10-04T17:34:34.095Z,17.53
2022-10-04T17:37:20.854Z,17.39
2022-10-04T17:40:12.315Z,17.28
2022-10-04T17:42:57.826Z,17.22
2022-10-04T17:45:56.025Z,17.07
2022-10-04T17:49:00.937Z,17.00
2022-10-04T17:51:52.864Z,16.90
2022-10-04T17:54:57.728Z,16.82
2022-10-04T17:57:33.271Z,16.57
2022-10-04T18:00:12.001Z,16.67
2022-10-04T18:02:59.564Z,16.60
2022-10-04T18:05:41.712Z,16.51
2022-10-04T18:08:39.281Z,16.40
2022-10-04T18:11:27.134Z,16.30
2022-10-04T18:14:00.760Z,16.22
2022-10-04T18:16:50.933Z,16.13
2022-10-04T18:19:36.181Z,15.94
2022-10-04T18:22:14.910Z,15.87
2022-10-04T18:25:22.403Z,15.72
2022-10-04T18:27:51.723Z,15.71
2022-10-04T18:30:21.267Z,15.60
2022-10-04T18:32:57.364Z,15.44
2022-10-04T18:35:26.685Z,15.45
2022-10-04T18:38:05.459Z,15.36
2022-10-04T18:40:41.715Z,15.34
2022-10-04T18:43:29.665Z,15.13
2022-10-04T18:46:21.008Z,15.06
2022-10-04T18:49:04.203Z,15.03
2022-10-04T18:51:40.570Z,15.00
2022-10-04T18:54:22.024Z,14.87
2022-10-04T18:56:56.432Z,14.74
2022-10-04T18:59:58.514Z,14.86
2022-10-04T19:02:42.672Z,14.79
2022-10-04T19:05:23.721Z,14.90
2022-10-04T19:08:21.781Z,15.03
2022-10-04T19:11:19.162Z,14.94
2022-10-04T19:14:06.094Z,14.69
2022-10-04T19:16:49.094Z,14.48
2022-10-04T19:19:16.164Z,14.59
2022-10-04T19:21:59.148Z,14.59
2022-10-04T19:24:48.255Z,14.29
2022-10-04T19:27:30.055Z,14.41
2022-10-04T19:30:15.201Z,14.58
2022-10-04T19:32:59.572Z,14.34
2022-10-04T19:36:04.182Z,14.26
2022-10-04T19:38:55.437Z,14.23
2022-10-04T19:41:47.826Z,14.14
2022-10-04T19:44:23.718Z,14.04
2022-10-04T19:46:59.215Z,14.12
2022-10-04T19:50:03.688Z,14.05
2022-10-04T19:52:55.040Z,13.99
2022-10-04T19:55:38.068Z,14.02
2022-10-04T19:58:41.578Z,14.08
2022-10-04T20:01:16.598Z,14.07
2022-10-04T20:03:43.932Z,14.03
2022-10-04T20:06:19.816Z,13.87
2022-10-04T20:08:51.166Z,13.70
2022-10-04T20:11:27.657Z,13.78
2022-10-04T20:14:09.216Z,13.84
2022-10-04T20:17:03.185Z,13.86
2022-10-04T20:19:33.045Z,13.90
2022-10-04T20:22:09.995Z,13.86
2022-10-04T20:24:36.473Z,13.60
2022-10-04T20:27:09.154Z,13.51
2022-10-04T20:29:38.795Z,13.55
2022-10-04T20:32:06.379Z,13.60
2022-10-04T20:34:35.583Z,13.31
2022-10-04T20:37:04.329Z,13.23
2022-10-04T20:39:45.693Z,13.33
2022-10-04T20:42:29.858Z,13.20
2022-10-04T20:45:01.700Z,13.30
2022-10-04T20:47:37.990Z,13.40
2022-10-04T20:50:14.355Z,13.42
2022-10-04T20:52:46.997Z,13.46
2022-10-04T20:55:28.128Z,13.44
2022-10-04T20:57:56.303Z,13.44
2022-10-04T21:00:25.796Z,13.45
2022-10-04T21:03:08.714Z,13.39
2022-10-04T21:05:35.582Z,13.39
2022-10-04T21:08:23.391Z,13.42
2022-10-04T21:11:13.233Z,13.35
2022-10-04T21:13:49.436Z,13.39
2022-10-04T21:16:40.972Z,13.25
2022-10-04T21:19:32.603Z,13.36
2022-10-04T21:22:01.322Z,13.24
2022-10-04T21:24:53.906Z,13.21
2022-10-04T21:27:38.211Z,12.95
2022-10-04T21:30:14.387Z,13.02
2022-10-04T21:32:40.984Z,13.02
2022-10-04T21:35:09.070Z,13.02
2022-10-04T21:37:35.988Z,12.94
2022-10-04T21:40:04.701Z,12.99
2022-10-04T21:42:31.452Z,12.97
2022-10-04T21:44:58.209Z,12.96
2022-10-04T21:47:24.976Z,12.98
2022-10-04T21:49:52.050Z,13.02
2022-10-04T21:52:18.737Z,13.06
2022-10-04T21:54:45.881Z,13.03
2022-10-04T21:57:13.234Z,13.05
2022-10-04T21:59:40.026Z,13.05
2022-10-04T22:02:07.892Z,13.06
2022-10-04T22:04:34.757Z,13.02
2022-10-04T22:07:01.414Z,13.05
2022-10-04T22:09:28.981Z,13.04
2022-10-04T22:11:55.959Z,13.05
2022-10-04T22:14:22.504Z,13.09
2022-10-04T22:16:49.645Z,13.08
2022-10-04T22:19:16.599Z,13.15
2022-10-04T22:21:43.540Z,13.12
2022-10-04T22:24:18.464Z,13.13
2022-10-04T22:26:45.713Z,13.14
2022-10-04T22:29:14.518Z,13.11
2022-10-04T22:31:44.133Z,13.10
2022-10-04T22:34:19.872Z,13.09
2022-10-04T22:36:49.567Z,13.07
2022-10-04T22:39:20.749Z,13.11
2022-10-04T22:41:52.444Z,13.08
2022-10-04T22:44:22.382Z,13.06
2022-10-04T22:46:52.765Z,13.06
2022-10-04T22:49:25.344Z,13.03
2022-10-04T22:51:54.440Z,12.97
2022-10-04T22:54:24.190Z,12.96
2022-10-04T22:56:51.647Z,12.92
2022-10-04T22:59:19.894Z,12.93
2022-10-04T23:01:47.353Z,12.89
2022-10-04T23:04:25.614Z,12.87
2022-10-04T23:06:54.725Z,12.81
2022-10-04T23:09:21.373Z,12.81
2022-10-04T23:11:48.196Z,12.79
2022-10-04T23:14:15.115Z,12.82
2022-10-04T23:16:43.110Z,12.81
2022-10-04T23:19:12.569Z,12.83
2022-10-04T23:21:42.627Z,12.79
2022-10-04T23:24:18.583Z,12.88
2022-10-04T23:26:55.739Z,12.78
2022-10-04T23:29:29.922Z,12.82
2022-10-04T23:31:57.177Z,12.88
2022-10-04T23:34:27.637Z,12.84
2022-10-04T23:36:54.764Z,12.87
2022-10-04T23:39:28.549Z,12.92
2022-10-04T23:41:56.518Z,12.91
2022-10-04T23:44:28.715Z,12.97
2022-10-04T23:46:55.243Z,12.98
2022-10-04T23:49:22.678Z,12.99
2022-10-04T23:51:55.520Z,12.99
2022-10-04T23:54:22.516Z,13.02
2022-10-04T23:56:49.321Z,13.00
2022-10-04T23:59:18.164Z,13.00
